Hlavní strana
METAR-TAF:

METAR-TAF

Letiště :

Hemavan, Švédsko

zeměpisná šířka: 65-48-22N, zeměpisná délka: 015-04-58E, výška: 458 m

Aktuální stav počasí

Zpráva byla vytvořena před 33 minutami, v 22:50 UTC
Jihovýchodní vítr 4 kt
Teplota 6°C
Vlhkost vzduchu 93%
Tlak 1018 hPa
Viditelnost 10 km a více

METAR: ESUT 152250Z AUTO 14004KT 9999 BKN017/// OVC035/// 06/05 Q1018

Čas: 00:23 (23:23 UTC)


TAF: chybějící

Stav a předpovědi počasí z více než 4 000 letišť (zprávy METAR a TAF).

Červené a žluté tečky na mapě představují dostupné meteorologické stanice.

Když kurzor umístíte na tečku, zobrazí se název stanice.

Pak kliknutím zobrazíte stav a předpověď počasí.

Chcete-li změnit mapu, kliknutím na zelené tlačítko se znaménkem +mapu přiblížíte, kliknutím na zelené tlačítko se znaménkem – mapu oddálíte a kliknutím na zelené šipky přejdete na sousední mapy.


METAR-TAF: